createdAt,value
2022-11-09T00:00:00.908Z,15.2
2022-11-09T00:03:01.090Z,15.2
2022-11-09T00:06:00.912Z,15.2
2022-11-09T00:09:08.010Z,15.2
2022-11-09T00:12:00.736Z,15.2
2022-11-09T00:15:00.911Z,15.1
2022-11-09T00:18:00.877Z,15.1
2022-11-09T00:21:00.869Z,15.1
2022-11-09T00:24:00.792Z,15.1
2022-11-09T00:27:00.901Z,15.1
2022-11-09T00:30:00.803Z,15.1
2022-11-09T00:33:00.763Z,15.1
2022-11-09T00:36:00.764Z,15.1
2022-11-09T00:39:00.776Z,15.1
2022-11-09T00:42:00.965Z,15.1
2022-11-09T00:45:00.749Z,15.1
2022-11-09T00:48:00.782Z,15.1
2022-11-09T00:51:00.855Z,15.1
2022-11-09T00:54:00.951Z,15.1
2022-11-09T00:57:00.832Z,15.1
2022-11-09T01:00:00.795Z,15.1
2022-11-09T01:03:00.854Z,15.1
2022-11-09T01:06:00.863Z,15.1
2022-11-09T01:09:00.852Z,15.1
2022-11-09T01:12:00.735Z,15.1
2022-11-09T01:15:00.870Z,15.1
2022-11-09T01:18:00.782Z,15.1
2022-11-09T01:21:00.763Z,15.1
2022-11-09T01:24:01.272Z,15.1
2022-11-09T01:27:00.916Z,15.1
2022-11-09T01:30:01.061Z,15.1
2022-11-09T01:33:00.803Z,14.9
2022-11-09T01:36:00.839Z,14.9
2022-11-09T01:39:00.804Z,14.9
2022-11-09T01:42:00.819Z,14.9
2022-11-09T01:45:00.837Z,14.9
2022-11-09T01:48:00.786Z,14.9
2022-11-09T01:51:00.828Z,14.9
2022-11-09T01:54:00.758Z,14.9
2022-11-09T01:57:00.769Z,14.9
2022-11-09T02:00:00.915Z,14.6
2022-11-09T02:03:00.750Z,14.6
2022-11-09T02:06:00.823Z,14.6
2022-11-09T02:09:00.904Z,14.6
2022-11-09T02:12:00.734Z,14.6
2022-11-09T02:15:00.729Z,14.6
2022-11-09T02:18:00.770Z,14.6
2022-11-09T02:21:00.732Z,14.6
2022-11-09T02:24:00.779Z,14.6
2022-11-09T02:27:00.826Z,14.6
2022-11-09T02:30:00.794Z,14.6
2022-11-09T02:33:00.823Z,14.5
2022-11-09T02:36:00.846Z,14.5
2022-11-09T02:39:00.758Z,14.5
2022-11-09T02:42:03.606Z,14.5
2022-11-09T02:45:00.853Z,14.5
2022-11-09T02:48:00.830Z,14.5
2022-11-09T02:51:00.802Z,14.5
2022-11-09T02:54:00.777Z,14.5
2022-11-09T02:57:00.924Z,14.5
2022-11-09T03:00:00.776Z,14.5
2022-11-09T03:03:00.860Z,14.5
2022-11-09T03:06:01.180Z,14.5
2022-11-09T03:09:00.805Z,14.5
2022-11-09T03:12:00.957Z,14.5
2022-11-09T03:15:00.899Z,14.5
2022-11-09T03:18:00.930Z,14.5
2022-11-09T03:21:01.060Z,14.5
2022-11-09T03:24:00.811Z,14.5
2022-11-09T03:27:00.728Z,14.8
2022-11-09T03:30:00.867Z,14.8
2022-11-09T03:33:00.778Z,14.8
2022-11-09T03:36:00.818Z,14.8
2022-11-09T03:39:00.766Z,14.8
2022-11-09T03:42:01.146Z,14.8
2022-11-09T03:45:00.798Z,14.8
2022-11-09T03:48:00.864Z,14.8
2022-11-09T03:51:00.740Z,14.8
2022-11-09T03:54:00.823Z,14.8
2022-11-09T03:57:00.729Z,14.8
2022-11-09T04:00:00.844Z,14.8
2022-11-09T04:03:00.776Z,14.8
2022-11-09T04:06:01.003Z,14.8
2022-11-09T04:09:00.757Z,14.8
2022-11-09T04:12:00.820Z,14.8
2022-11-09T04:15:00.753Z,14.8
2022-11-09T04:18:00.843Z,14.8
2022-11-09T04:21:00.995Z,14.8
2022-11-09T04:24:00.761Z,14.8
2022-11-09T04:27:00.892Z,14.8
2022-11-09T04:30:00.824Z,14.8
2022-11-09T04:33:00.854Z,14.8
2022-11-09T04:36:00.840Z,14.8
2022-11-09T04:39:00.772Z,14.8
2022-11-09T04:42:00.812Z,14.8
2022-11-09T04:45:00.797Z,14.8
2022-11-09T04:48:00.772Z,14.8
2022-11-09T04:51:00.742Z,14.8
2022-11-09T04:54:00.807Z,14.8
2022-11-09T04:57:00.787Z,14.8
2022-11-09T05:00:00.919Z,14.7
2022-11-09T05:03:00.737Z,14.7
2022-11-09T05:06:00.875Z,14.7
2022-11-09T05:09:00.726Z,14.7
2022-11-09T05:12:00.856Z,14.7
2022-11-09T05:15:00.727Z,14.7
2022-11-09T05:18:01.180Z,14.7
2022-11-09T05:21:00.711Z,14.6
2022-11-09T05:24:01.196Z,14.6
2022-11-09T05:27:00.802Z,14.6
2022-11-09T05:30:00.831Z,14.6
2022-11-09T05:33:00.768Z,14.6
2022-11-09T05:36:00.818Z,14.6
2022-11-09T05:39:00.753Z,14.6
2022-11-09T05:42:00.822Z,14.6
2022-11-09T05:45:41.272Z,14.6
2022-11-09T05:48:00.822Z,14.6
2022-11-09T05:51:00.767Z,14.6
2022-11-09T05:54:00.883Z,14.6
2022-11-09T05:57:00.740Z,14.6
2022-11-09T06:00:00.925Z,14.6
2022-11-09T06:03:00.781Z,14.4
2022-11-09T06:06:08.497Z,14.4
2022-11-09T06:09:00.974Z,14.4
2022-11-09T06:12:00.853Z,14.4
2022-11-09T06:15:00.759Z,14.4
2022-11-09T06:18:00.972Z,14.4
2022-11-09T06:21:00.811Z,14.4
2022-11-09T06:24:00.842Z,14.4
2022-11-09T06:27:00.729Z,14.4
2022-11-09T06:30:01.252Z,14.4
2022-11-09T06:33:00.806Z,14.4
2022-11-09T06:36:00.947Z,14.4
2022-11-09T06:39:00.838Z,14.4
2022-11-09T06:42:00.951Z,14.4
2022-11-09T06:45:00.773Z,14.4
2022-11-09T06:48:01.002Z,14.4
2022-11-09T06:51:00.832Z,14.4
2022-11-09T06:54:00.845Z,14.4
2022-11-09T07:00:00.931Z,14.4
2022-11-09T07:03:00.896Z,14.4
2022-11-09T07:06:00.820Z,14.4
2022-11-09T07:09:00.867Z,14.4
2022-11-09T07:12:00.809Z,14.4
2022-11-09T07:15:04.737Z,14.4
2022-11-09T07:18:00.874Z,14.4
2022-11-09T07:21:00.967Z,14.2
2022-11-09T07:24:00.881Z,14.2
2022-11-09T07:27:00.793Z,14.2
2022-11-09T07:30:00.974Z,14.2
2022-11-09T07:33:12.803Z,14.2
2022-11-09T07:36:00.887Z,14.2
2022-11-09T07:39:00.820Z,14.2
2022-11-09T07:42:00.906Z,14.2
2022-11-09T07:45:00.798Z,14.2
2022-11-09T07:48:00.943Z,14.2
2022-11-09T07:57:00.820Z,14.2
2022-11-09T08:03:00.884Z,14.2
2022-11-09T08:06:00.793Z,14.2
2022-11-09T08:09:00.901Z,14.2
2022-11-09T08:12:00.854Z,14.2
2022-11-09T08:15:00.823Z,14.1
2022-11-09T08:18:00.816Z,14.1
2022-11-09T08:21:00.834Z,14.1
2022-11-09T08:24:00.826Z,14.1
2022-11-09T08:27:00.833Z,14.1
2022-11-09T08:30:00.852Z,14.1
2022-11-09T08:33:00.779Z,14.1
2022-11-09T08:36:00.837Z,14.1
2022-11-09T08:39:00.772Z,14.1
2022-11-09T08:42:01.510Z,14.1
2022-11-09T08:45:00.905Z,14.1
2022-11-09T08:48:00.809Z,14.1
2022-11-09T08:51:00.949Z,14.1
2022-11-09T08:54:00.835Z,14.1
2022-11-09T08:57:00.826Z,14.1
2022-11-09T09:00:00.961Z,14.1
2022-11-09T09:03:00.891Z,14.7
2022-11-09T09:06:00.835Z,14.7
2022-11-09T09:09:00.846Z,14.7
2022-11-09T09:12:00.818Z,14.7
2022-11-09T09:15:00.831Z,14.7
2022-11-09T09:18:00.798Z,14.7
2022-11-09T09:21:00.825Z,14.7
2022-11-09T09:24:00.747Z,14.7
2022-11-09T09:27:00.830Z,14.7
2022-11-09T09:30:00.912Z,14.7
2022-11-09T09:33:00.770Z,14.7
2022-11-09T09:36:00.812Z,14.7
2022-11-09T09:39:00.829Z,14.7
2022-11-09T09:42:00.919Z,15.2
2022-11-09T09:45:00.889Z,15.2
2022-11-09T09:48:00.771Z,15.2
2022-11-09T09:51:00.783Z,15.2
2022-11-09T09:54:00.883Z,15.2
2022-11-09T09:57:00.795Z,15.2
2022-11-09T10:00:00.994Z,15.1
2022-11-09T10:03:00.757Z,15.1
2022-11-09T10:06:00.800Z,15.2
2022-11-09T10:09:00.827Z,15.2
2022-11-09T10:12:01.705Z,15.2
2022-11-09T10:15:00.849Z,15.3
2022-11-09T10:18:00.799Z,15.3
2022-11-09T10:21:00.752Z,15.3
2022-11-09T10:24:00.783Z,15.3
2022-11-09T10:27:00.734Z,15.4
2022-11-09T10:30:00.832Z,15.4
2022-11-09T10:33:00.841Z,15.4
2022-11-09T10:36:08.130Z,15.4
2022-11-09T10:39:00.763Z,15.4
2022-11-09T10:42:00.848Z,15.6
2022-11-09T10:45:00.761Z,15.6
2022-11-09T10:48:00.852Z,15.6
2022-11-09T10:51:00.901Z,15.6
2022-11-09T10:54:00.769Z,15.6
2022-11-09T10:57:06.886Z,15.6
2022-11-09T11:00:00.877Z,15.8
2022-11-09T11:03:00.954Z,15.8
2022-11-09T11:06:00.829Z,15.8
2022-11-09T11:09:00.901Z,15.8
2022-11-09T11:12:00.839Z,15.8
2022-11-09T11:15:00.746Z,15.8
2022-11-09T11:18:00.821Z,15.8
2022-11-09T11:21:00.864Z,15.8
2022-11-09T11:24:00.858Z,15.8
2022-11-09T11:27:00.825Z,15.8
2022-11-09T11:30:00.900Z,15.8
2022-11-09T11:33:00.892Z,16.1
2022-11-09T11:36:00.832Z,16.1
2022-11-09T11:39:00.799Z,16.1
2022-11-09T11:42:00.936Z,16.1
2022-11-09T11:45:39.351Z,16.1
2022-11-09T11:48:00.797Z,16.1
2022-11-09T11:51:00.833Z,16.1
2022-11-09T11:54:00.838Z,16.3
2022-11-09T11:57:00.798Z,16.3
2022-11-09T12:00:00.971Z,16.3
2022-11-09T12:03:00.901Z,16.3
2022-11-09T12:06:00.775Z,16.3
2022-11-09T12:09:00.912Z,16.3
2022-11-09T12:12:00.831Z,16.3
2022-11-09T12:15:00.895Z,16.3
2022-11-09T12:18:00.856Z,16.3
2022-11-09T12:21:00.746Z,16.3
2022-11-09T12:24:00.815Z,16.3
2022-11-09T12:27:31.360Z,16.3
2022-11-09T12:30:00.832Z,16.3
2022-11-09T12:33:00.774Z,16.3
2022-11-09T12:36:00.937Z,16.3
2022-11-09T12:39:01.068Z,16.3
2022-11-09T12:42:00.829Z,16.3
2022-11-09T12:45:00.834Z,16.3
2022-11-09T12:48:00.909Z,16.3
2022-11-09T12:51:00.863Z,16.3
2022-11-09T12:54:00.746Z,16.6
2022-11-09T12:57:00.808Z,16.6
2022-11-09T13:00:01.201Z,16.6
2022-11-09T13:03:00.810Z,16.6
2022-11-09T13:06:02.942Z,16.6
2022-11-09T13:09:00.851Z,16.6
2022-11-09T13:12:00.909Z,16.6
2022-11-09T13:15:00.803Z,16.6
2022-11-09T13:18:00.972Z,16.6
2022-11-09T13:21:00.794Z,16.6
2022-11-09T13:24:05.945Z,16.6
2022-11-09T13:27:00.938Z,16.6
2022-11-09T13:30:00.895Z,16.6
2022-11-09T13:33:00.822Z,16.6
2022-11-09T13:36:00.854Z,16.4
2022-11-09T13:39:00.834Z,16.4
2022-11-09T13:42:00.851Z,16.4
2022-11-09T13:45:00.776Z,16.4
2022-11-09T13:48:00.897Z,16.4
2022-11-09T13:51:00.848Z,16.4
2022-11-09T13:54:00.753Z,16.1
2022-11-09T13:57:00.845Z,16.1
2022-11-09T14:00:00.915Z,16.1
2022-11-09T14:03:00.843Z,16.1
2022-11-09T14:06:00.841Z,16.1
2022-11-09T14:09:00.796Z,16.1
2022-11-09T14:12:00.855Z,15.5
2022-11-09T14:15:00.828Z,15.5
2022-11-09T14:18:00.871Z,15.5
2022-11-09T14:21:00.894Z,15.5
2022-11-09T14:24:00.842Z,15.5
2022-11-09T14:27:00.779Z,15.5
2022-11-09T14:30:00.799Z,15.5
2022-11-09T14:33:00.804Z,15.5
2022-11-09T14:36:00.771Z,15.5
2022-11-09T14:39:00.911Z,15.5
2022-11-09T14:42:00.785Z,15.5
2022-11-09T14:45:00.815Z,15.4
2022-11-09T14:48:00.809Z,15.5
2022-11-09T14:51:00.873Z,15.4
2022-11-09T14:54:00.812Z,15.4
2022-11-09T14:57:00.831Z,15.4
2022-11-09T15:00:00.843Z,15.4
2022-11-09T15:03:00.837Z,15.4
2022-11-09T15:06:00.810Z,15.4
2022-11-09T15:09:00.788Z,15.4
2022-11-09T15:12:00.839Z,14.9
2022-11-09T15:15:00.849Z,14.9
2022-11-09T15:18:00.874Z,14.9
2022-11-09T15:21:00.878Z,14.9
2022-11-09T15:24:00.864Z,14.9
2022-11-09T15:27:00.800Z,14.9
2022-11-09T15:30:00.838Z,14.9
2022-11-09T15:33:00.817Z,14.4
2022-11-09T15:36:00.811Z,14.4
2022-11-09T15:39:00.680Z,14.3
2022-11-09T15:42:00.763Z,14.3
2022-11-09T15:45:00.895Z,14.3
2022-11-09T15:48:00.794Z,14.3
2022-11-09T15:51:00.757Z,14.3
2022-11-09T15:54:00.897Z,14.3
2022-11-09T15:57:00.789Z,14.3
2022-11-09T16:00:00.864Z,13.9
2022-11-09T16:03:00.796Z,13.9
2022-11-09T16:06:00.786Z,13.9
2022-11-09T16:09:00.828Z,13.9
2022-11-09T16:12:00.837Z,13.8
2022-11-09T16:15:00.788Z,13.8
2022-11-09T16:18:00.842Z,13.8
2022-11-09T16:21:00.749Z,13.8
2022-11-09T16:24:00.804Z,13.8
2022-11-09T16:27:00.765Z,13.8
2022-11-09T16:30:00.770Z,13.8
2022-11-09T16:33:00.846Z,13.7
2022-11-09T16:36:00.785Z,13.7
2022-11-09T16:39:00.752Z,13.7
2022-11-09T16:42:00.786Z,13.7
2022-11-09T16:45:00.823Z,13.7
2022-11-09T16:48:00.742Z,13.7
2022-11-09T16:51:00.845Z,13.7
2022-11-09T16:54:00.761Z,13.7
2022-11-09T16:57:00.821Z,13.7
2022-11-09T17:00:00.892Z,13.4
2022-11-09T17:03:00.725Z,13.4
2022-11-09T17:06:00.771Z,13.4
2022-11-09T17:09:00.767Z,13.4
2022-11-09T17:12:00.832Z,13.4
2022-11-09T17:15:00.746Z,13.4
2022-11-09T17:18:00.817Z,13.4
2022-11-09T17:21:00.841Z,13.4
2022-11-09T17:24:00.833Z,13.4
2022-11-09T17:27:00.708Z,13.4
2022-11-09T17:30:00.808Z,13
2022-11-09T17:33:00.818Z,13
2022-11-09T17:36:00.835Z,13
2022-11-09T17:39:00.744Z,13
2022-11-09T17:42:00.747Z,13
2022-11-09T17:45:00.763Z,13
2022-11-09T17:48:00.848Z,13
2022-11-09T17:51:00.778Z,12.5
2022-11-09T17:54:00.816Z,12.5
2022-11-09T17:57:00.757Z,12.5
2022-11-09T18:00:00.782Z,12.5
2022-11-09T18:03:00.800Z,12.5
2022-11-09T18:06:00.823Z,12.5
2022-11-09T18:09:41.080Z,12.5
2022-11-09T18:12:00.796Z,12.5
2022-11-09T18:15:00.740Z,12.5
2022-11-09T18:18:00.773Z,12.5
2022-11-09T18:21:00.698Z,12.2
2022-11-09T18:24:00.883Z,12.2
2022-11-09T18:27:00.793Z,12.1
2022-11-09T18:30:00.838Z,12.1
2022-11-09T18:33:00.779Z,12.1
2022-11-09T18:36:00.827Z,12.1
2022-11-09T18:39:00.839Z,12.1
2022-11-09T18:42:00.767Z,12.1
2022-11-09T18:45:00.749Z,12.1
2022-11-09T18:48:00.778Z,12.2
2022-11-09T18:51:00.796Z,12.2
2022-11-09T18:54:00.837Z,12.2
2022-11-09T18:57:00.768Z,12.2
2022-11-09T19:00:00.831Z,12.2
2022-11-09T19:03:00.869Z,12.2
2022-11-09T19:06:00.871Z,12.2
2022-11-09T19:09:00.737Z,12.2
2022-11-09T19:12:00.770Z,12.2
2022-11-09T19:15:00.805Z,12.2
2022-11-09T19:18:00.783Z,12.2
2022-11-09T19:21:00.769Z,12.2
2022-11-09T19:24:00.818Z,12.2
2022-11-09T19:27:00.889Z,12.1
2022-11-09T19:30:09.116Z,12.1
2022-11-09T19:33:00.742Z,12.1
2022-11-09T19:36:30.551Z,12.1
2022-11-09T19:39:00.819Z,12.1
2022-11-09T19:42:00.742Z,12.1
2022-11-09T19:45:00.768Z,12.1
2022-11-09T19:48:00.821Z,12.1
2022-11-09T19:51:00.770Z,12.3
2022-11-09T19:54:00.793Z,12.3
2022-11-09T19:57:00.735Z,12.3
2022-11-09T20:00:00.821Z,12.3
2022-11-09T20:03:00.782Z,12.3
2022-11-09T20:06:00.748Z,12.2
2022-11-09T20:09:00.849Z,12.2
2022-11-09T20:12:00.753Z,12.2
2022-11-09T20:15:00.819Z,12.2
2022-11-09T20:18:01.069Z,12.2
2022-11-09T20:21:00.849Z,12.2
2022-11-09T20:24:00.775Z,12.2
2022-11-09T20:27:00.759Z,12.2
2022-11-09T20:30:00.747Z,12.2
2022-11-09T20:33:00.801Z,12.1
2022-11-09T20:36:00.843Z,12.1
2022-11-09T20:39:00.787Z,12.1
2022-11-09T20:42:00.726Z,12.1
2022-11-09T20:45:00.736Z,12.1
2022-11-09T20:48:31.299Z,12
2022-11-09T20:51:00.748Z,12
2022-11-09T20:54:07.638Z,12
2022-11-09T20:57:00.725Z,12
2022-11-09T21:00:00.982Z,12
2022-11-09T21:03:00.697Z,12
2022-11-09T21:06:00.760Z,12
2022-11-09T21:09:00.793Z,12
2022-11-09T21:12:00.716Z,12
2022-11-09T21:15:00.755Z,12
2022-11-09T21:18:00.760Z,11.8
2022-11-09T21:21:00.960Z,11.8
2022-11-09T21:24:00.726Z,11.8
2022-11-09T21:27:00.750Z,11.8
2022-11-09T21:30:00.750Z,11.8
2022-11-09T21:33:00.801Z,11.8
2022-11-09T21:36:00.765Z,11.8
2022-11-09T21:39:00.787Z,11.8
2022-11-09T21:42:00.752Z,11.8
2022-11-09T21:45:01.074Z,11.8
2022-11-09T21:48:00.763Z,11.8
2022-11-09T21:51:00.798Z,11.8
2022-11-09T21:54:00.866Z,11.8
2022-11-09T21:57:00.745Z,11.8
2022-11-09T22:00:00.835Z,11.8
2022-11-09T22:03:00.785Z,11.8
2022-11-09T22:06:00.780Z,11.8
2022-11-09T22:09:00.885Z,11.8
2022-11-09T22:12:00.770Z,11.8
2022-11-09T22:15:00.752Z,11.8
2022-11-09T22:18:00.810Z,11.8
2022-11-09T22:21:00.790Z,11.8
2022-11-09T22:24:00.777Z,11.8
2022-11-09T22:27:00.741Z,11.8
2022-11-09T22:30:00.766Z,11.8
2022-11-09T22:33:00.787Z,11.8
2022-11-09T22:36:00.815Z,11.8
2022-11-09T22:39:00.762Z,11.8
2022-11-09T22:42:00.764Z,11.8
2022-11-09T22:45:00.770Z,11.8
2022-11-09T22:48:00.840Z,12
2022-11-09T22:51:00.726Z,12
2022-11-09T22:54:00.757Z,12
2022-11-09T22:57:00.709Z,12
2022-11-09T23:00:01.161Z,12
2022-11-09T23:03:00.758Z,12
2022-11-09T23:06:00.784Z,12
2022-11-09T23:09:00.742Z,12
2022-11-09T23:12:00.859Z,12.1
2022-11-09T23:15:00.816Z,12.1
2022-11-09T23:18:00.772Z,12.1
2022-11-09T23:21:00.762Z,12.1
2022-11-09T23:24:00.739Z,12.1
2022-11-09T23:27:00.768Z,12.1
2022-11-09T23:30:00.783Z,12.1
2022-11-09T23:33:00.759Z,12.1
2022-11-09T23:36:01.090Z,12.1
2022-11-09T23:39:00.725Z,12.1
2022-11-09T23:42:00.791Z,12.1
2022-11-09T23:45:00.787Z,12.1
2022-11-09T23:48:00.800Z,12.1
2022-11-09T23:51:00.746Z,12.1
2022-11-09T23:54:00.763Z,12.1
2022-11-09T23:57:00.719Z,12.1
